sensor_id;sensor_type;location;lat;lon;timestamp;P1;durP1;ratioP1;P2;durP2;ratioP2
19985;SDS011;10154;52.474;10.768;2022-09-12T00:00:49;4.77;;;2.90;;
19985;SDS011;10154;52.474;10.768;2022-09-12T00:03:15;3.90;;;2.97;;
19985;SDS011;10154;52.474;10.768;2022-09-12T00:05:45;3.87;;;3.00;;
19985;SDS011;10154;52.474;10.768;2022-09-12T00:08:12;4.37;;;2.80;;
19985;SDS011;10154;52.474;10.768;2022-09-12T00:10:40;4.87;;;2.80;;
19985;SDS011;10154;52.474;10.768;2022-09-12T00:13:08;3.50;;;2.70;;
19985;SDS011;10154;52.474;10.768;2022-09-12T00:15:38;3.23;;;2.93;;
19985;SDS011;10154;52.474;10.768;2022-09-12T00:18:07;6.10;;;3.10;;
19985;SDS011;10154;52.474;10.768;2022-09-12T00:20:40;3.40;;;3.00;;
19985;SDS011;10154;52.474;10.768;2022-09-12T00:23:11;3.93;;;2.90;;
19985;SDS011;10154;52.474;10.768;2022-09-12T00:25:45;3.40;;;3.10;;
19985;SDS011;10154;52.474;10.768;2022-09-12T00:28:14;3.43;;;3.10;;
19985;SDS011;10154;52.474;10.768;2022-09-12T00:30:42;4.03;;;3.47;;
19985;SDS011;10154;52.474;10.768;2022-09-12T00:33:12;3.53;;;3.20;;
19985;SDS011;10154;52.474;10.768;2022-09-12T00:35:43;3.80;;;3.20;;
19985;SDS011;10154;52.474;10.768;2022-09-12T00:38:17;3.57;;;3.13;;
19985;SDS011;10154;52.474;10.768;2022-09-12T00:40:44;5.53;;;3.20;;
19985;SDS011;10154;52.474;10.768;2022-09-12T00:43:31;6.70;;;3.40;;
19985;SDS011;10154;52.474;10.768;2022-09-12T00:46:13;3.97;;;3.37;;
19985;SDS011;10154;52.474;10.768;2022-09-12T00:54:49;4.40;;;3.37;;
19985;SDS011;10154;52.474;10.768;2022-09-12T00:57:27;6.63;;;3.77;;
19985;SDS011;10154;52.474;10.768;2022-09-12T01:00:00;3.93;;;3.10;;
19985;SDS011;10154;52.474;10.768;2022-09-12T01:02:40;4.93;;;3.50;;
19985;SDS011;10154;52.474;10.768;2022-09-12T01:05:09;4.17;;;3.40;;
19985;SDS011;10154;52.474;10.768;2022-09-12T01:07:36;4.30;;;3.40;;
19985;SDS011;10154;52.474;10.768;2022-09-12T01:10:05;3.43;;;3.13;;
19985;SDS011;10154;52.474;10.768;2022-09-12T01:12:33;7.17;;;3.33;;
19985;SDS011;10154;52.474;10.768;2022-09-12T01:15:04;4.17;;;3.07;;
19985;SDS011;10154;52.474;10.768;2022-09-12T01:20:28;4.43;;;3.27;;
19985;SDS011;10154;52.474;10.768;2022-09-12T01:32:45;4.00;;;3.20;;
19985;SDS011;10154;52.474;10.768;2022-09-12T01:35:59;7.70;;;3.00;;
19985;SDS011;10154;52.474;10.768;2022-09-12T01:38:37;3.20;;;2.90;;
19985;SDS011;10154;52.474;10.768;2022-09-12T01:47:14;3.63;;;3.07;;
19985;SDS011;10154;52.474;10.768;2022-09-12T01:50:17;4.00;;;2.90;;
19985;SDS011;10154;52.474;10.768;2022-09-12T01:55:41;3.63;;;3.23;;
19985;SDS011;10154;52.474;10.768;2022-09-12T01:58:26;4.13;;;3.27;;
19985;SDS011;10154;52.474;10.768;2022-09-12T02:01:07;3.87;;;3.23;;
19985;SDS011;10154;52.474;10.768;2022-09-12T02:03:49;3.60;;;3.10;;
19985;SDS011;10154;52.474;10.768;2022-09-12T02:06:31;4.13;;;3.23;;
19985;SDS011;10154;52.474;10.768;2022-09-12T02:09:08;4.13;;;3.43;;
19985;SDS011;10154;52.474;10.768;2022-09-12T02:11:59;3.80;;;3.07;;
19985;SDS011;10154;52.474;10.768;2022-09-12T02:14:28;3.90;;;3.13;;
19985;SDS011;10154;52.474;10.768;2022-09-12T02:17:11;6.53;;;3.50;;
19985;SDS011;10154;52.474;10.768;2022-09-12T02:19:45;5.43;;;3.63;;
19985;SDS011;10154;52.474;10.768;2022-09-12T02:22:18;4.40;;;3.33;;
19985;SDS011;10154;52.474;10.768;2022-09-12T02:24:49;5.23;;;3.30;;
19985;SDS011;10154;52.474;10.768;2022-09-12T02:27:20;5.03;;;3.27;;
19985;SDS011;10154;52.474;10.768;2022-09-12T02:30:08;4.17;;;3.70;;
19985;SDS011;10154;52.474;10.768;2022-09-12T02:35:35;5.83;;;3.67;;
19985;SDS011;10154;52.474;10.768;2022-09-12T02:38:10;4.97;;;3.50;;
19985;SDS011;10154;52.474;10.768;2022-09-12T02:40:48;6.27;;;4.03;;
19985;SDS011;10154;52.474;10.768;2022-09-12T02:43:14;4.50;;;3.90;;
19985;SDS011;10154;52.474;10.768;2022-09-12T02:45:40;4.90;;;4.00;;
19985;SDS011;10154;52.474;10.768;2022-09-12T02:48:11;6.73;;;3.80;;
19985;SDS011;10154;52.474;10.768;2022-09-12T02:50:45;5.13;;;4.03;;
19985;SDS011;10154;52.474;10.768;2022-09-12T02:53:11;6.53;;;4.13;;
19985;SDS011;10154;52.474;10.768;2022-09-12T02:55:38;5.47;;;4.50;;
19985;SDS011;10154;52.474;10.768;2022-09-12T02:58:07;4.83;;;3.83;;
19985;SDS011;10154;52.474;10.768;2022-09-12T03:06:35;5.07;;;3.77;;
19985;SDS011;10154;52.474;10.768;2022-09-12T03:12:58;4.80;;;3.80;;
19985;SDS011;10154;52.474;10.768;2022-09-12T03:18:28;4.33;;;3.47;;
19985;SDS011;10154;52.474;10.768;2022-09-12T03:21:14;4.90;;;3.90;;
19985;SDS011;10154;52.474;10.768;2022-09-12T03:26:44;5.47;;;3.43;;
19985;SDS011;10154;52.474;10.768;2022-09-12T03:29:16;3.20;;;2.90;;
19985;SDS011;10154;52.474;10.768;2022-09-12T03:31:54;7.10;;;3.73;;
19985;SDS011;10154;52.474;10.768;2022-09-12T03:34:22;4.83;;;3.00;;
19985;SDS011;10154;52.474;10.768;2022-09-12T03:36:50;3.87;;;3.20;;
19985;SDS011;10154;52.474;10.768;2022-09-12T03:39:19;6.73;;;3.13;;
19985;SDS011;10154;52.474;10.768;2022-09-12T03:41:48;4.63;;;3.53;;
19985;SDS011;10154;52.474;10.768;2022-09-12T03:44:15;3.23;;;2.93;;
19985;SDS011;10154;52.474;10.768;2022-09-12T03:46:42;3.30;;;3.00;;
19985;SDS011;10154;52.474;10.768;2022-09-12T03:49:09;4.07;;;3.00;;
19985;SDS011;10154;52.474;10.768;2022-09-12T03:51:36;3.97;;;2.83;;
19985;SDS011;10154;52.474;10.768;2022-09-12T03:54:03;3.33;;;3.00;;
19985;SDS011;10154;52.474;10.768;2022-09-12T03:56:29;3.63;;;2.90;;
19985;SDS011;10154;52.474;10.768;2022-09-12T03:58:56;3.37;;;2.73;;
19985;SDS011;10154;52.474;10.768;2022-09-12T04:01:22;4.80;;;2.73;;
19985;SDS011;10154;52.474;10.768;2022-09-12T04:03:49;3.03;;;2.73;;
19985;SDS011;10154;52.474;10.768;2022-09-12T04:06:21;3.33;;;2.80;;
19985;SDS011;10154;52.474;10.768;2022-09-12T04:08:48;3.57;;;2.47;;
19985;SDS011;10154;52.474;10.768;2022-09-12T04:11:19;4.10;;;3.20;;
19985;SDS011;10154;52.474;10.768;2022-09-12T04:13:47;3.73;;;2.80;;
19985;SDS011;10154;52.474;10.768;2022-09-12T04:16:14;4.27;;;3.00;;
19985;SDS011;10154;52.474;10.768;2022-09-12T04:18:41;2.93;;;2.60;;
19985;SDS011;10154;52.474;10.768;2022-09-12T04:21:12;3.33;;;3.00;;
19985;SDS011;10154;52.474;10.768;2022-09-12T04:23:41;3.10;;;2.80;;
19985;SDS011;10154;52.474;10.768;2022-09-12T04:26:08;3.40;;;3.07;;
19985;SDS011;10154;52.474;10.768;2022-09-12T04:28:35;3.40;;;3.10;;
19985;SDS011;10154;52.474;10.768;2022-09-12T04:31:13;3.00;;;2.70;;
19985;SDS011;10154;52.474;10.768;2022-09-12T04:33:43;3.70;;;2.83;;
19985;SDS011;10154;52.474;10.768;2022-09-12T04:36:11;2.57;;;2.37;;
19985;SDS011;10154;52.474;10.768;2022-09-12T04:38:41;2.70;;;2.50;;
19985;SDS011;10154;52.474;10.768;2022-09-12T04:41:12;3.80;;;2.70;;
19985;SDS011;10154;52.474;10.768;2022-09-12T04:43:41;3.40;;;2.73;;
19985;SDS011;10154;52.474;10.768;2022-09-12T04:46:10;5.33;;;3.40;;
19985;SDS011;10154;52.474;10.768;2022-09-12T04:48:41;5.83;;;3.80;;
19985;SDS011;10154;52.474;10.768;2022-09-12T04:53:42;8.87;;;4.70;;
19985;SDS011;10154;52.474;10.768;2022-09-12T04:56:14;6.93;;;4.67;;
19985;SDS011;10154;52.474;10.768;2022-09-12T04:58:41;9.30;;;4.90;;
19985;SDS011;10154;52.474;10.768;2022-09-12T05:01:11;7.93;;;4.80;;
19985;SDS011;10154;52.474;10.768;2022-09-12T05:03:40;9.70;;;4.67;;
19985;SDS011;10154;52.474;10.768;2022-09-12T05:06:10;7.33;;;4.37;;
19985;SDS011;10154;52.474;10.768;2022-09-12T05:08:40;11.70;;;4.23;;
19985;SDS011;10154;52.474;10.768;2022-09-12T05:11:09;6.50;;;4.20;;
19985;SDS011;10154;52.474;10.768;2022-09-12T05:13:39;7.07;;;4.27;;
19985;SDS011;10154;52.474;10.768;2022-09-12T05:16:06;6.27;;;4.50;;
19985;SDS011;10154;52.474;10.768;2022-09-12T05:18:34;5.67;;;4.20;;
19985;SDS011;10154;52.474;10.768;2022-09-12T05:21:01;8.70;;;4.37;;
19985;SDS011;10154;52.474;10.768;2022-09-12T05:23:33;7.30;;;4.43;;
19985;SDS011;10154;52.474;10.768;2022-09-12T05:26:00;7.77;;;4.57;;
19985;SDS011;10154;52.474;10.768;2022-09-12T05:28:29;6.40;;;4.47;;
19985;SDS011;10154;52.474;10.768;2022-09-12T05:31:01;9.60;;;4.80;;
19985;SDS011;10154;52.474;10.768;2022-09-12T05:33:35;7.93;;;4.57;;
19985;SDS011;10154;52.474;10.768;2022-09-12T05:36:04;9.83;;;5.53;;
19985;SDS011;10154;52.474;10.768;2022-09-12T05:38:34;13.57;;;6.30;;
19985;SDS011;10154;52.474;10.768;2022-09-12T05:41:05;9.60;;;5.70;;
19985;SDS011;10154;52.474;10.768;2022-09-12T05:43:58;9.13;;;5.53;;
19985;SDS011;10154;52.474;10.768;2022-09-12T05:46:28;8.73;;;5.33;;
19985;SDS011;10154;52.474;10.768;2022-09-12T05:48:56;10.63;;;5.07;;
19985;SDS011;10154;52.474;10.768;2022-09-12T05:51:27;7.93;;;4.80;;
19985;SDS011;10154;52.474;10.768;2022-09-12T05:53:58;7.53;;;5.00;;
19985;SDS011;10154;52.474;10.768;2022-09-12T05:56:28;8.30;;;5.00;;
19985;SDS011;10154;52.474;10.768;2022-09-12T05:59:01;9.30;;;5.50;;
19985;SDS011;10154;52.474;10.768;2022-09-12T06:01:34;12.67;;;6.17;;
19985;SDS011;10154;52.474;10.768;2022-09-12T06:04:02;8.97;;;5.53;;
19985;SDS011;10154;52.474;10.768;2022-09-12T06:06:30;7.33;;;5.07;;
19985;SDS011;10154;52.474;10.768;2022-09-12T06:09:00;9.50;;;5.53;;
19985;SDS011;10154;52.474;10.768;2022-09-12T06:11:29;8.67;;;5.33;;
19985;SDS011;10154;52.474;10.768;2022-09-12T06:13:58;9.80;;;5.57;;
19985;SDS011;10154;52.474;10.768;2022-09-12T06:16:26;8.53;;;5.33;;
19985;SDS011;10154;52.474;10.768;2022-09-12T06:18:55;8.67;;;5.80;;
19985;SDS011;10154;52.474;10.768;2022-09-12T06:21:27;9.17;;;5.87;;
19985;SDS011;10154;52.474;10.768;2022-09-12T06:23:55;8.60;;;6.00;;
19985;SDS011;10154;52.474;10.768;2022-09-12T06:26:25;12.03;;;6.67;;
19985;SDS011;10154;52.474;10.768;2022-09-12T06:28:53;11.50;;;6.37;;
19985;SDS011;10154;52.474;10.768;2022-09-12T06:31:23;10.10;;;6.53;;
19985;SDS011;10154;52.474;10.768;2022-09-12T06:33:56;13.27;;;6.87;;
19985;SDS011;10154;52.474;10.768;2022-09-12T06:36:27;12.03;;;7.40;;
19985;SDS011;10154;52.474;10.768;2022-09-12T06:39:01;10.97;;;6.90;;
19985;SDS011;10154;52.474;10.768;2022-09-12T06:41:31;16.50;;;8.77;;
19985;SDS011;10154;52.474;10.768;2022-09-12T06:43:58;13.17;;;8.03;;
19985;SDS011;10154;52.474;10.768;2022-09-12T06:46:25;17.37;;;9.70;;
19985;SDS011;10154;52.474;10.768;2022-09-12T06:48:52;13.80;;;8.43;;
19985;SDS011;10154;52.474;10.768;2022-09-12T06:51:21;15.33;;;9.10;;
19985;SDS011;10154;52.474;10.768;2022-09-12T06:53:47;29.30;;;10.27;;
19985;SDS011;10154;52.474;10.768;2022-09-12T06:56:15;16.43;;;9.30;;
19985;SDS011;10154;52.474;10.768;2022-09-12T06:58:47;17.07;;;9.50;;
19985;SDS011;10154;52.474;10.768;2022-09-12T07:01:16;23.83;;;11.20;;
19985;SDS011;10154;52.474;10.768;2022-09-12T07:03:49;25.63;;;12.30;;
19985;SDS011;10154;52.474;10.768;2022-09-12T07:06:22;22.43;;;12.30;;
19985;SDS011;10154;52.474;10.768;2022-09-12T07:09:15;27.63;;;12.60;;
19985;SDS011;10154;52.474;10.768;2022-09-12T07:11:42;27.83;;;13.37;;
19985;SDS011;10154;52.474;10.768;2022-09-12T07:14:10;28.10;;;14.10;;
19985;SDS011;10154;52.474;10.768;2022-09-12T07:16:38;32.43;;;15.53;;
19985;SDS011;10154;52.474;10.768;2022-09-12T07:19:05;34.47;;;17.33;;
19985;SDS011;10154;52.474;10.768;2022-09-12T07:21:32;36.33;;;19.20;;
19985;SDS011;10154;52.474;10.768;2022-09-12T07:24:03;34.17;;;17.20;;
19985;SDS011;10154;52.474;10.768;2022-09-12T07:26:30;28.57;;;16.03;;
19985;SDS011;10154;52.474;10.768;2022-09-12T07:28:57;25.80;;;13.80;;
19985;SDS011;10154;52.474;10.768;2022-09-12T07:31:24;27.57;;;15.00;;
19985;SDS011;10154;52.474;10.768;2022-09-12T07:33:52;30.87;;;15.20;;
19985;SDS011;10154;52.474;10.768;2022-09-12T07:36:19;30.43;;;17.90;;
19985;SDS011;10154;52.474;10.768;2022-09-12T07:38:47;27.67;;;14.67;;
19985;SDS011;10154;52.474;10.768;2022-09-12T07:41:23;30.93;;;15.03;;
19985;SDS011;10154;52.474;10.768;2022-09-12T07:43:53;28.57;;;15.30;;
19985;SDS011;10154;52.474;10.768;2022-09-12T07:46:21;27.20;;;14.43;;
19985;SDS011;10154;52.474;10.768;2022-09-12T07:48:52;30.30;;;14.57;;
19985;SDS011;10154;52.474;10.768;2022-09-12T07:51:20;30.00;;;14.43;;
19985;SDS011;10154;52.474;10.768;2022-09-12T07:53:48;23.73;;;12.77;;
19985;SDS011;10154;52.474;10.768;2022-09-12T07:56:16;29.13;;;14.80;;
19985;SDS011;10154;52.474;10.768;2022-09-12T07:58:44;28.43;;;14.40;;
19985;SDS011;10154;52.474;10.768;2022-09-12T08:01:11;25.07;;;12.73;;
19985;SDS011;10154;52.474;10.768;2022-09-12T08:03:40;23.40;;;11.80;;
19985;SDS011;10154;52.474;10.768;2022-09-12T08:08:38;22.23;;;12.60;;
19985;SDS011;10154;52.474;10.768;2022-09-12T08:11:06;21.07;;;11.33;;
19985;SDS011;10154;52.474;10.768;2022-09-12T08:13:36;22.27;;;11.17;;
19985;SDS011;10154;52.474;10.768;2022-09-12T08:16:05;19.03;;;11.50;;
19985;SDS011;10154;52.474;10.768;2022-09-12T08:18:38;21.50;;;11.47;;
19985;SDS011;10154;52.474;10.768;2022-09-12T08:21:06;21.87;;;11.53;;
19985;SDS011;10154;52.474;10.768;2022-09-12T08:23:39;17.93;;;10.73;;
19985;SDS011;10154;52.474;10.768;2022-09-12T08:26:06;17.70;;;10.50;;
19985;SDS011;10154;52.474;10.768;2022-09-12T08:28:34;17.70;;;10.00;;
19985;SDS011;10154;52.474;10.768;2022-09-12T08:33:29;17.57;;;10.17;;
19985;SDS011;10154;52.474;10.768;2022-09-12T08:38:35;18.60;;;9.50;;
19985;SDS011;10154;52.474;10.768;2022-09-12T08:47:32;12.90;;;7.70;;
19985;SDS011;10154;52.474;10.768;2022-09-12T08:50:09;13.00;;;7.80;;
19985;SDS011;10154;52.474;10.768;2022-09-12T08:52:44;13.45;;;7.85;;
19985;SDS011;10154;52.474;10.768;2022-09-12T08:55:30;13.90;;;8.27;;
19985;SDS011;10154;52.474;10.768;2022-09-12T08:58:11;12.55;;;7.10;;
19985;SDS011;10154;52.474;10.768;2022-09-12T09:16:38;8.10;;;4.85;;
19985;SDS011;10154;52.474;10.768;2022-09-12T09:19:11;9.38;;;4.70;;
19985;SDS011;10154;52.474;10.768;2022-09-12T09:21:48;7.90;;;4.72;;
19985;SDS011;10154;52.474;10.768;2022-09-12T09:24:21;13.13;;;5.22;;
19985;SDS011;10154;52.474;10.768;2022-09-12T09:26:59;6.13;;;4.03;;
19985;SDS011;10154;52.474;10.768;2022-09-12T09:29:42;5.65;;;3.40;;
19985;SDS011;10154;52.474;10.768;2022-09-12T09:32:13;6.45;;;4.05;;
19985;SDS011;10154;52.474;10.768;2022-09-12T09:34:50;4.82;;;3.25;;
19985;SDS011;10154;52.474;10.768;2022-09-12T09:37:26;5.03;;;4.00;;
19985;SDS011;10154;52.474;10.768;2022-09-12T09:45:29;4.50;;;3.20;;
19985;SDS011;10154;52.474;10.768;2022-09-12T09:48:12;5.63;;;4.18;;
19985;SDS011;10154;52.474;10.768;2022-09-12T09:50:43;5.30;;;3.13;;
19985;SDS011;10154;52.474;10.768;2022-09-12T09:56:01;6.40;;;2.85;;
19985;SDS011;10154;52.474;10.768;2022-09-12T09:58:36;3.15;;;2.42;;
19985;SDS011;10154;52.474;10.768;2022-09-12T10:01:04;2.95;;;2.03;;
19985;SDS011;10154;52.474;10.768;2022-09-12T10:03:51;2.30;;;1.90;;
19985;SDS011;10154;52.474;10.768;2022-09-12T10:08:46;3.03;;;2.28;;
19985;SDS011;10154;52.474;10.768;2022-09-12T10:16:20;5.25;;;2.40;;
19985;SDS011;10154;52.474;10.768;2022-09-12T10:18:52;2.22;;;1.88;;
19985;SDS011;10154;52.474;10.768;2022-09-12T10:29:44;4.32;;;3.10;;
19985;SDS011;10154;52.474;10.768;2022-09-12T10:35:15;3.40;;;2.13;;
19985;SDS011;10154;52.474;10.768;2022-09-12T10:40:30;3.28;;;2.30;;
19985;SDS011;10154;52.474;10.768;2022-09-12T10:43:01;3.33;;;2.65;;
19985;SDS011;10154;52.474;10.768;2022-09-12T10:45:48;7.15;;;3.20;;
19985;SDS011;10154;52.474;10.768;2022-09-12T10:50:54;4.80;;;2.33;;
19985;SDS011;10154;52.474;10.768;2022-09-12T10:53:23;6.15;;;2.85;;
19985;SDS011;10154;52.474;10.768;2022-09-12T10:56:13;2.85;;;2.22;;
19985;SDS011;10154;52.474;10.768;2022-09-12T10:58:55;2.15;;;1.95;;
19985;SDS011;10154;52.474;10.768;2022-09-12T11:02:14;2.50;;;1.70;;
19985;SDS011;10154;52.474;10.768;2022-09-12T11:25:26;5.07;;;2.60;;
19985;SDS011;10154;52.474;10.768;2022-09-12T11:28:19;3.72;;;2.58;;
19985;SDS011;10154;52.474;10.768;2022-09-12T11:33:50;4.22;;;2.50;;
19985;SDS011;10154;52.474;10.768;2022-09-12T11:39:04;2.95;;;1.98;;
19985;SDS011;10154;52.474;10.768;2022-09-12T11:41:44;3.08;;;2.13;;
19985;SDS011;10154;52.474;10.768;2022-09-12T11:46:50;3.33;;;2.00;;
19985;SDS011;10154;52.474;10.768;2022-09-12T11:52:14;4.20;;;2.60;;
19985;SDS011;10154;52.474;10.768;2022-09-12T11:54:59;5.03;;;2.50;;
19985;SDS011;10154;52.474;10.768;2022-09-12T11:57:40;4.40;;;2.55;;
19985;SDS011;10154;52.474;10.768;2022-09-12T12:00:21;4.38;;;2.75;;
19985;SDS011;10154;52.474;10.768;2022-09-12T12:05:47;2.45;;;2.13;;
19985;SDS011;10154;52.474;10.768;2022-09-12T12:08:21;2.08;;;1.80;;
19985;SDS011;10154;52.474;10.768;2022-09-12T12:11:00;3.35;;;2.40;;
19985;SDS011;10154;52.474;10.768;2022-09-12T12:16:19;2.90;;;2.20;;
19985;SDS011;10154;52.474;10.768;2022-09-12T12:18:56;2.17;;;1.98;;
19985;SDS011;10154;52.474;10.768;2022-09-12T12:24:10;2.25;;;2.05;;
19985;SDS011;10154;52.474;10.768;2022-09-12T12:34:35;2.80;;;1.90;;
19985;SDS011;10154;52.474;10.768;2022-09-12T12:37:53;2.80;;;2.20;;
19985;SDS011;10154;52.474;10.768;2022-09-12T12:52:52;11.27;;;1.80;;
19985;SDS011;10154;52.474;10.768;2022-09-12T12:55:26;5.97;;;2.45;;
19985;SDS011;10154;52.474;10.768;2022-09-12T12:58:32;2.35;;;2.03;;
19985;SDS011;10154;52.474;10.768;2022-09-12T13:01:42;2.80;;;1.88;;
19985;SDS011;10154;52.474;10.768;2022-09-12T13:04:10;4.32;;;2.10;;
19985;SDS011;10154;52.474;10.768;2022-09-12T13:06:45;3.35;;;2.00;;
19985;SDS011;10154;52.474;10.768;2022-09-12T13:09:32;4.18;;;2.03;;
19985;SDS011;10154;52.474;10.768;2022-09-12T13:12:21;3.70;;;1.83;;
19985;SDS011;10154;52.474;10.768;2022-09-12T13:14:55;2.00;;;1.80;;
19985;SDS011;10154;52.474;10.768;2022-09-12T13:17:28;3.08;;;2.10;;
19985;SDS011;10154;52.474;10.768;2022-09-12T13:20:29;1.80;;;1.70;;
19985;SDS011;10154;52.474;10.768;2022-09-12T13:22:50;1.48;;;1.38;;
19985;SDS011;10154;52.474;10.768;2022-09-12T13:25:18;1.70;;;1.40;;
19985;SDS011;10154;52.474;10.768;2022-09-12T13:30:34;1.88;;;1.35;;
19985;SDS011;10154;52.474;10.768;2022-09-12T13:33:49;3.42;;;1.83;;
19985;SDS011;10154;52.474;10.768;2022-09-12T13:36:30;3.65;;;2.05;;
19985;SDS011;10154;52.474;10.768;2022-09-12T13:44:57;3.00;;;2.20;;
19985;SDS011;10154;52.474;10.768;2022-09-12T13:47:42;2.65;;;1.90;;
19985;SDS011;10154;52.474;10.768;2022-09-12T13:50:18;3.60;;;2.10;;
19985;SDS011;10154;52.474;10.768;2022-09-12T13:52:48;4.75;;;2.22;;
19985;SDS011;10154;52.474;10.768;2022-09-12T13:55:24;4.28;;;2.33;;
19985;SDS011;10154;52.474;10.768;2022-09-12T14:01:02;3.95;;;1.90;;
19985;SDS011;10154;52.474;10.768;2022-09-12T14:03:41;4.43;;;2.17;;
19985;SDS011;10154;52.474;10.768;2022-09-12T14:09:42;4.00;;;2.10;;
19985;SDS011;10154;52.474;10.768;2022-09-12T14:14:50;2.65;;;1.80;;
19985;SDS011;10154;52.474;10.768;2022-09-12T14:17:18;3.80;;;2.30;;
19985;SDS011;10154;52.474;10.768;2022-09-12T14:20:21;2.58;;;2.38;;
19985;SDS011;10154;52.474;10.768;2022-09-12T14:22:48;5.72;;;3.17;;
19985;SDS011;10154;52.474;10.768;2022-09-12T14:25:17;2.92;;;2.42;;
19985;SDS011;10154;52.474;10.768;2022-09-12T14:27:52;3.85;;;2.40;;
19985;SDS011;10154;52.474;10.768;2022-09-12T14:30:27;4.28;;;2.40;;
19985;SDS011;10154;52.474;10.768;2022-09-12T14:33:03;3.30;;;2.30;;
19985;SDS011;10154;52.474;10.768;2022-09-12T14:35:34;3.63;;;2.20;;
19985;SDS011;10154;52.474;10.768;2022-09-12T14:40:44;4.30;;;2.38;;
19985;SDS011;10154;52.474;10.768;2022-09-12T14:43:17;3.72;;;2.40;;
19985;SDS011;10154;52.474;10.768;2022-09-12T14:46:07;4.00;;;2.15;;
19985;SDS011;10154;52.474;10.768;2022-09-12T14:49:14;3.63;;;2.30;;
19985;SDS011;10154;52.474;10.768;2022-09-12T14:52:05;2.58;;;2.30;;
19985;SDS011;10154;52.474;10.768;2022-09-12T14:55:02;3.50;;;1.98;;
19985;SDS011;10154;52.474;10.768;2022-09-12T14:58:13;4.00;;;2.30;;
19985;SDS011;10154;52.474;10.768;2022-09-12T15:09:02;2.70;;;1.60;;
19985;SDS011;10154;52.474;10.768;2022-09-12T15:11:38;2.47;;;1.75;;
19985;SDS011;10154;52.474;10.768;2022-09-12T15:14:14;3.25;;;1.85;;
19985;SDS011;10154;52.474;10.768;2022-09-12T15:16:40;2.55;;;1.95;;
19985;SDS011;10154;52.474;10.768;2022-09-12T15:19:06;3.17;;;2.03;;
19985;SDS011;10154;52.474;10.768;2022-09-12T15:21:32;3.88;;;2.00;;
19985;SDS011;10154;52.474;10.768;2022-09-12T15:23:58;3.17;;;2.00;;
19985;SDS011;10154;52.474;10.768;2022-09-12T15:26:26;4.55;;;2.30;;
19985;SDS011;10154;52.474;10.768;2022-09-12T15:28:55;3.97;;;2.25;;
19985;SDS011;10154;52.474;10.768;2022-09-12T15:31:25;3.22;;;2.20;;
19985;SDS011;10154;52.474;10.768;2022-09-12T15:33:55;5.30;;;2.05;;
19985;SDS011;10154;52.474;10.768;2022-09-12T15:36:25;3.50;;;2.00;;
19985;SDS011;10154;52.474;10.768;2022-09-12T15:38:56;3.05;;;1.90;;
19985;SDS011;10154;52.474;10.768;2022-09-12T15:43:52;2.65;;;1.85;;
19985;SDS011;10154;52.474;10.768;2022-09-12T15:46:18;2.30;;;1.70;;
19985;SDS011;10154;52.474;10.768;2022-09-12T15:48:44;3.50;;;2.13;;
19985;SDS011;10154;52.474;10.768;2022-09-12T15:51:11;2.72;;;1.65;;
19985;SDS011;10154;52.474;10.768;2022-09-12T15:53:42;1.58;;;1.45;;
19985;SDS011;10154;52.474;10.768;2022-09-12T15:56:10;2.75;;;1.70;;
19985;SDS011;10154;52.474;10.768;2022-09-12T15:58:36;1.83;;;1.70;;
19985;SDS011;10154;52.474;10.768;2022-09-12T16:01:02;3.50;;;2.17;;
19985;SDS011;10154;52.474;10.768;2022-09-12T16:03:29;1.85;;;1.70;;
19985;SDS011;10154;52.474;10.768;2022-09-12T16:05:57;3.25;;;2.10;;
19985;SDS011;10154;52.474;10.768;2022-09-12T16:08:27;2.58;;;1.95;;
19985;SDS011;10154;52.474;10.768;2022-09-12T16:11:06;3.65;;;1.70;;
19985;SDS011;10154;52.474;10.768;2022-09-12T16:13:36;2.17;;;1.73;;
19985;SDS011;10154;52.474;10.768;2022-09-12T16:16:03;2.05;;;1.60;;
19985;SDS011;10154;52.474;10.768;2022-09-12T16:18:29;1.75;;;1.60;;
19985;SDS011;10154;52.474;10.768;2022-09-12T16:20:55;3.85;;;2.20;;
19985;SDS011;10154;52.474;10.768;2022-09-12T16:23:22;3.45;;;1.90;;
19985;SDS011;10154;52.474;10.768;2022-09-12T16:25:55;2.95;;;2.00;;
19985;SDS011;10154;52.474;10.768;2022-09-12T16:28:27;2.60;;;1.80;;
19985;SDS011;10154;52.474;10.768;2022-09-12T16:30:57;3.67;;;2.10;;
19985;SDS011;10154;52.474;10.768;2022-09-12T16:33:25;3.83;;;1.95;;
19985;SDS011;10154;52.474;10.768;2022-09-12T16:35:59;3.22;;;1.70;;
19985;SDS011;10154;52.474;10.768;2022-09-12T16:38:47;3.90;;;1.70;;
19985;SDS011;10154;52.474;10.768;2022-09-12T16:41:19;5.45;;;1.90;;
19985;SDS011;10154;52.474;10.768;2022-09-12T16:43:49;6.03;;;1.92;;
19985;SDS011;10154;52.474;10.768;2022-09-12T16:46:20;3.00;;;1.88;;
19985;SDS011;10154;52.474;10.768;2022-09-12T16:48:53;5.65;;;2.15;;
19985;SDS011;10154;52.474;10.768;2022-09-12T16:51:22;3.42;;;2.05;;
19985;SDS011;10154;52.474;10.768;2022-09-12T16:53:54;4.72;;;1.90;;
19985;SDS011;10154;52.474;10.768;2022-09-12T16:56:21;3.53;;;1.98;;
19985;SDS011;10154;52.474;10.768;2022-09-12T16:58:48;11.88;;;1.95;;
19985;SDS011;10154;52.474;10.768;2022-09-12T17:01:18;13.07;;;2.08;;
19985;SDS011;10154;52.474;10.768;2022-09-12T17:03:53;5.57;;;1.95;;
19985;SDS011;10154;52.474;10.768;2022-09-12T17:06:23;2.67;;;1.63;;
19985;SDS011;10154;52.474;10.768;2022-09-12T17:08:52;2.25;;;1.77;;
19985;SDS011;10154;52.474;10.768;2022-09-12T17:11:23;3.13;;;1.80;;
19985;SDS011;10154;52.474;10.768;2022-09-12T17:13:55;3.53;;;1.80;;
19985;SDS011;10154;52.474;10.768;2022-09-12T17:16:22;6.93;;;1.77;;
19985;SDS011;10154;52.474;10.768;2022-09-12T17:18:50;3.65;;;1.60;;
19985;SDS011;10154;52.474;10.768;2022-09-12T17:21:18;2.20;;;1.58;;
19985;SDS011;10154;52.474;10.768;2022-09-12T17:23:45;2.90;;;1.77;;
19985;SDS011;10154;52.474;10.768;2022-09-12T17:26:11;3.15;;;1.95;;
19985;SDS011;10154;52.474;10.768;2022-09-12T17:28:39;5.10;;;1.70;;
19985;SDS011;10154;52.474;10.768;2022-09-12T17:31:06;3.75;;;1.98;;
19985;SDS011;10154;52.474;10.768;2022-09-12T17:33:35;2.70;;;1.80;;
19985;SDS011;10154;52.474;10.768;2022-09-12T17:36:04;3.65;;;1.70;;
19985;SDS011;10154;52.474;10.768;2022-09-12T17:38:34;3.00;;;2.00;;
19985;SDS011;10154;52.474;10.768;2022-09-12T17:41:13;3.05;;;2.00;;
19985;SDS011;10154;52.474;10.768;2022-09-12T17:43:45;4.43;;;2.00;;
19985;SDS011;10154;52.474;10.768;2022-09-12T17:46:22;3.13;;;2.25;;
19985;SDS011;10154;52.474;10.768;2022-09-12T17:48:59;2.83;;;2.33;;
19985;SDS011;10154;52.474;10.768;2022-09-12T17:51:28;2.65;;;2.00;;
19985;SDS011;10154;52.474;10.768;2022-09-12T17:54:03;8.25;;;2.30;;
19985;SDS011;10154;52.474;10.768;2022-09-12T17:56:38;4.57;;;2.10;;
19985;SDS011;10154;52.474;10.768;2022-09-12T17:59:05;2.80;;;2.03;;
19985;SDS011;10154;52.474;10.768;2022-09-12T18:01:34;3.70;;;2.25;;
19985;SDS011;10154;52.474;10.768;2022-09-12T18:04:19;5.05;;;2.50;;
19985;SDS011;10154;52.474;10.768;2022-09-12T18:06:45;4.60;;;2.15;;
19985;SDS011;10154;52.474;10.768;2022-09-12T18:09:13;4.65;;;2.35;;
19985;SDS011;10154;52.474;10.768;2022-09-12T18:11:45;2.40;;;2.00;;
19985;SDS011;10154;52.474;10.768;2022-09-12T18:14:13;5.80;;;2.35;;
19985;SDS011;10154;52.474;10.768;2022-09-12T18:16:39;4.65;;;2.67;;
19985;SDS011;10154;52.474;10.768;2022-09-12T18:19:07;3.17;;;2.33;;
19985;SDS011;10154;52.474;10.768;2022-09-12T18:21:33;4.13;;;2.30;;
19985;SDS011;10154;52.474;10.768;2022-09-12T18:24:00;2.92;;;2.22;;
19985;SDS011;10154;52.474;10.768;2022-09-12T18:26:27;2.78;;;2.08;;